sensor_id;sensor_type;location;lat;lon;timestamp;P1;durP1;ratioP1;P2;durP2;ratioP2
9940;SDS011;5009;50.656;7.188;2023-06-01T00:06:16;4.43;;;3.37;;
9940;SDS011;5009;50.656;7.188;2023-06-01T00:08:42;6.27;;;3.70;;
9940;SDS011;5009;50.656;7.188;2023-06-01T00:11:07;3.73;;;3.30;;
9940;SDS011;5009;50.656;7.188;2023-06-01T00:13:33;4.73;;;3.27;;
9940;SDS011;5009;50.656;7.188;2023-06-01T00:15:58;3.77;;;3.43;;
9940;SDS011;5009;50.656;7.188;2023-06-01T00:18:24;4.97;;;3.60;;
9940;SDS011;5009;50.656;7.188;2023-06-01T00:20:52;3.97;;;3.30;;
9940;SDS011;5009;50.656;7.188;2023-06-01T00:23:18;4.40;;;3.10;;
9940;SDS011;5009;50.656;7.188;2023-06-01T00:25:44;3.67;;;2.97;;
9940;SDS011;5009;50.656;7.188;2023-06-01T00:28:10;4.40;;;3.40;;
9940;SDS011;5009;50.656;7.188;2023-06-01T00:30:36;3.57;;;3.27;;
9940;SDS011;5009;50.656;7.188;2023-06-01T00:33:01;5.70;;;3.67;;
9940;SDS011;5009;50.656;7.188;2023-06-01T00:35:27;4.40;;;3.60;;
9940;SDS011;5009;50.656;7.188;2023-06-01T00:37:53;4.43;;;3.67;;
9940;SDS011;5009;50.656;7.188;2023-06-01T00:40:18;3.50;;;3.20;;
9940;SDS011;5009;50.656;7.188;2023-06-01T00:42:44;4.43;;;3.33;;
9940;SDS011;5009;50.656;7.188;2023-06-01T00:45:09;3.97;;;3.40;;
9940;SDS011;5009;50.656;7.188;2023-06-01T00:47:38;5.77;;;3.63;;
9940;SDS011;5009;50.656;7.188;2023-06-01T00:50:06;4.93;;;3.37;;
9940;SDS011;5009;50.656;7.188;2023-06-01T00:52:32;3.10;;;2.90;;
9940;SDS011;5009;50.656;7.188;2023-06-01T00:54:58;4.93;;;3.43;;
9940;SDS011;5009;50.656;7.188;2023-06-01T00:57:23;5.20;;;3.50;;
9940;SDS011;5009;50.656;7.188;2023-06-01T00:59:51;4.87;;;3.60;;
9940;SDS011;5009;50.656;7.188;2023-06-01T01:02:18;4.67;;;3.50;;
9940;SDS011;5009;50.656;7.188;2023-06-01T01:04:43;4.27;;;3.50;;
9940;SDS011;5009;50.656;7.188;2023-06-01T01:07:12;5.60;;;3.47;;
9940;SDS011;5009;50.656;7.188;2023-06-01T01:09:56;4.80;;;3.43;;
9940;SDS011;5009;50.656;7.188;2023-06-01T01:12:35;4.63;;;3.30;;
9940;SDS011;5009;50.656;7.188;2023-06-01T01:15:18;4.50;;;3.60;;
9940;SDS011;5009;50.656;7.188;2023-06-01T01:17:54;5.07;;;3.40;;
9940;SDS011;5009;50.656;7.188;2023-06-01T01:20:29;3.33;;;3.03;;
9940;SDS011;5009;50.656;7.188;2023-06-01T01:23:15;4.70;;;3.10;;
9940;SDS011;5009;50.656;7.188;2023-06-01T01:26:23;3.97;;;3.33;;
9940;SDS011;5009;50.656;7.188;2023-06-01T01:29:00;4.17;;;3.50;;
9940;SDS011;5009;50.656;7.188;2023-06-01T01:31:30;4.53;;;3.47;;
9940;SDS011;5009;50.656;7.188;2023-06-01T01:33:58;4.53;;;3.57;;
9940;SDS011;5009;50.656;7.188;2023-06-01T01:36:25;4.40;;;3.80;;
9940;SDS011;5009;50.656;7.188;2023-06-01T01:38:51;4.33;;;3.50;;
9940;SDS011;5009;50.656;7.188;2023-06-01T01:41:16;4.00;;;3.23;;
9940;SDS011;5009;50.656;7.188;2023-06-01T01:43:42;4.20;;;3.70;;
9940;SDS011;5009;50.656;7.188;2023-06-01T01:46:28;4.23;;;3.43;;
9940;SDS011;5009;50.656;7.188;2023-06-01T01:49:21;5.90;;;3.90;;
9940;SDS011;5009;50.656;7.188;2023-06-01T01:52:05;3.60;;;3.33;;
9940;SDS011;5009;50.656;7.188;2023-06-01T01:54:44;7.57;;;3.80;;
9940;SDS011;5009;50.656;7.188;2023-06-01T01:57:14;4.50;;;3.67;;
9940;SDS011;5009;50.656;7.188;2023-06-01T01:59:42;4.90;;;3.43;;
9940;SDS011;5009;50.656;7.188;2023-06-01T02:02:09;5.57;;;4.03;;
9940;SDS011;5009;50.656;7.188;2023-06-01T02:04:41;9.10;;;4.00;;
9940;SDS011;5009;50.656;7.188;2023-06-01T02:07:08;5.17;;;3.73;;
9940;SDS011;5009;50.656;7.188;2023-06-01T02:09:34;5.13;;;3.70;;
9940;SDS011;5009;50.656;7.188;2023-06-01T02:12:00;5.17;;;3.67;;
9940;SDS011;5009;50.656;7.188;2023-06-01T02:14:27;5.00;;;3.83;;
9940;SDS011;5009;50.656;7.188;2023-06-01T02:16:53;5.27;;;4.50;;
9940;SDS011;5009;50.656;7.188;2023-06-01T02:19:19;6.83;;;4.23;;
9940;SDS011;5009;50.656;7.188;2023-06-01T02:21:45;4.60;;;4.10;;
9940;SDS011;5009;50.656;7.188;2023-06-01T02:24:11;5.67;;;3.87;;
9940;SDS011;5009;50.656;7.188;2023-06-01T02:26:37;5.90;;;4.10;;
9940;SDS011;5009;50.656;7.188;2023-06-01T02:29:03;5.03;;;3.90;;
9940;SDS011;5009;50.656;7.188;2023-06-01T02:31:30;8.90;;;4.37;;
9940;SDS011;5009;50.656;7.188;2023-06-01T02:33:57;4.20;;;3.80;;
9940;SDS011;5009;50.656;7.188;2023-06-01T02:36:23;6.27;;;4.60;;
9940;SDS011;5009;50.656;7.188;2023-06-01T02:38:50;6.97;;;4.27;;
9940;SDS011;5009;50.656;7.188;2023-06-01T02:41:15;4.37;;;3.97;;
9940;SDS011;5009;50.656;7.188;2023-06-01T02:43:41;6.10;;;4.77;;
9940;SDS011;5009;50.656;7.188;2023-06-01T02:46:06;6.70;;;4.53;;
9940;SDS011;5009;50.656;7.188;2023-06-01T02:48:32;5.13;;;4.03;;
9940;SDS011;5009;50.656;7.188;2023-06-01T02:50:57;5.97;;;4.77;;
9940;SDS011;5009;50.656;7.188;2023-06-01T02:53:23;8.33;;;4.73;;
9940;SDS011;5009;50.656;7.188;2023-06-01T02:55:52;5.13;;;4.10;;
9940;SDS011;5009;50.656;7.188;2023-06-01T02:58:17;6.23;;;4.73;;
9940;SDS011;5009;50.656;7.188;2023-06-01T03:00:43;6.33;;;4.73;;
9940;SDS011;5009;50.656;7.188;2023-06-01T03:03:08;6.37;;;4.57;;
9940;SDS011;5009;50.656;7.188;2023-06-01T03:05:34;4.87;;;4.00;;
9940;SDS011;5009;50.656;7.188;2023-06-01T03:08:00;5.27;;;4.20;;
9940;SDS011;5009;50.656;7.188;2023-06-01T03:10:26;6.47;;;4.50;;
9940;SDS011;5009;50.656;7.188;2023-06-01T03:12:52;5.67;;;4.67;;
9940;SDS011;5009;50.656;7.188;2023-06-01T03:15:17;5.40;;;4.30;;
9940;SDS011;5009;50.656;7.188;2023-06-01T03:17:43;6.17;;;4.33;;
9940;SDS011;5009;50.656;7.188;2023-06-01T03:20:09;6.50;;;4.50;;
9940;SDS011;5009;50.656;7.188;2023-06-01T03:22:45;7.13;;;4.07;;
9940;SDS011;5009;50.656;7.188;2023-06-01T03:25:11;8.00;;;5.07;;
9940;SDS011;5009;50.656;7.188;2023-06-01T03:27:37;5.47;;;4.17;;
9940;SDS011;5009;50.656;7.188;2023-06-01T03:30:06;5.57;;;4.50;;
9940;SDS011;5009;50.656;7.188;2023-06-01T03:32:35;6.60;;;4.67;;
9940;SDS011;5009;50.656;7.188;2023-06-01T03:35:02;8.60;;;4.73;;
9940;SDS011;5009;50.656;7.188;2023-06-01T03:37:28;4.80;;;4.27;;
9940;SDS011;5009;50.656;7.188;2023-06-01T03:39:54;6.57;;;4.70;;
9940;SDS011;5009;50.656;7.188;2023-06-01T03:42:20;6.47;;;5.00;;
9940;SDS011;5009;50.656;7.188;2023-06-01T03:44:45;5.00;;;4.50;;
9940;SDS011;5009;50.656;7.188;2023-06-01T03:47:11;6.27;;;5.07;;
9940;SDS011;5009;50.656;7.188;2023-06-01T03:49:38;6.20;;;4.40;;
9940;SDS011;5009;50.656;7.188;2023-06-01T03:52:04;6.70;;;5.27;;
9940;SDS011;5009;50.656;7.188;2023-06-01T03:54:30;7.90;;;4.90;;
9940;SDS011;5009;50.656;7.188;2023-06-01T03:56:56;7.43;;;5.47;;
9940;SDS011;5009;50.656;7.188;2023-06-01T03:59:22;5.97;;;5.10;;
9940;SDS011;5009;50.656;7.188;2023-06-01T04:01:47;5.20;;;4.50;;
9940;SDS011;5009;50.656;7.188;2023-06-01T04:04:14;6.37;;;4.70;;
9940;SDS011;5009;50.656;7.188;2023-06-01T04:06:41;5.87;;;4.43;;
9940;SDS011;5009;50.656;7.188;2023-06-01T04:09:10;5.73;;;4.90;;
9940;SDS011;5009;50.656;7.188;2023-06-01T04:11:37;8.30;;;4.87;;
9940;SDS011;5009;50.656;7.188;2023-06-01T04:14:04;5.57;;;4.63;;
9940;SDS011;5009;50.656;7.188;2023-06-01T04:16:31;5.93;;;4.20;;
9940;SDS011;5009;50.656;7.188;2023-06-01T04:18:56;5.73;;;4.20;;
9940;SDS011;5009;50.656;7.188;2023-06-01T04:21:22;8.13;;;4.60;;
9940;SDS011;5009;50.656;7.188;2023-06-01T04:23:48;5.33;;;4.43;;
9940;SDS011;5009;50.656;7.188;2023-06-01T04:26:15;5.70;;;4.33;;
9940;SDS011;5009;50.656;7.188;2023-06-01T04:28:41;5.77;;;4.83;;
9940;SDS011;5009;50.656;7.188;2023-06-01T04:31:10;5.90;;;4.53;;
9940;SDS011;5009;50.656;7.188;2023-06-01T04:33:42;6.43;;;4.63;;
9940;SDS011;5009;50.656;7.188;2023-06-01T04:36:17;5.83;;;4.80;;
9940;SDS011;5009;50.656;7.188;2023-06-01T04:38:46;5.50;;;4.40;;
9940;SDS011;5009;50.656;7.188;2023-06-01T04:41:16;5.53;;;4.33;;
9940;SDS011;5009;50.656;7.188;2023-06-01T04:43:42;5.23;;;4.43;;
9940;SDS011;5009;50.656;7.188;2023-06-01T04:46:07;5.37;;;4.80;;
9940;SDS011;5009;50.656;7.188;2023-06-01T04:48:33;8.30;;;5.17;;
9940;SDS011;5009;50.656;7.188;2023-06-01T04:50:59;9.67;;;5.00;;
9940;SDS011;5009;50.656;7.188;2023-06-01T04:53:25;5.37;;;4.80;;
9940;SDS011;5009;50.656;7.188;2023-06-01T04:55:51;8.17;;;5.30;;
9940;SDS011;5009;50.656;7.188;2023-06-01T04:58:17;7.45;;;5.00;;
9940;SDS011;5009;50.656;7.188;2023-06-01T05:00:42;6.53;;;5.23;;
9940;SDS011;5009;50.656;7.188;2023-06-01T05:03:08;5.68;;;4.40;;
9940;SDS011;5009;50.656;7.188;2023-06-01T05:05:33;7.15;;;5.38;;
9940;SDS011;5009;50.656;7.188;2023-06-01T05:07:59;5.47;;;4.95;;
9940;SDS011;5009;50.656;7.188;2023-06-01T05:10:25;5.65;;;4.70;;
9940;SDS011;5009;50.656;7.188;2023-06-01T05:12:50;8.05;;;4.88;;
9940;SDS011;5009;50.656;7.188;2023-06-01T05:15:16;6.43;;;4.93;;
9940;SDS011;5009;50.656;7.188;2023-06-01T05:17:42;5.97;;;4.72;;
9940;SDS011;5009;50.656;7.188;2023-06-01T05:20:08;6.00;;;5.22;;
9940;SDS011;5009;50.656;7.188;2023-06-01T05:22:36;6.30;;;4.82;;
9940;SDS011;5009;50.656;7.188;2023-06-01T05:25:02;6.40;;;4.28;;
9940;SDS011;5009;50.656;7.188;2023-06-01T05:27:28;5.45;;;4.38;;
9940;SDS011;5009;50.656;7.188;2023-06-01T05:29:53;5.35;;;4.85;;
9940;SDS011;5009;50.656;7.188;2023-06-01T05:32:20;5.38;;;4.90;;
9940;SDS011;5009;50.656;7.188;2023-06-01T05:34:45;5.28;;;4.50;;
9940;SDS011;5009;50.656;7.188;2023-06-01T05:37:11;5.93;;;4.75;;
9940;SDS011;5009;50.656;7.188;2023-06-01T05:39:37;5.15;;;4.60;;
9940;SDS011;5009;50.656;7.188;2023-06-01T05:42:02;6.65;;;4.80;;
9940;SDS011;5009;50.656;7.188;2023-06-01T05:44:30;6.53;;;4.63;;
9940;SDS011;5009;50.656;7.188;2023-06-01T05:46:56;7.40;;;4.32;;
9940;SDS011;5009;50.656;7.188;2023-06-01T05:49:22;5.57;;;5.07;;
9940;SDS011;5009;50.656;7.188;2023-06-01T05:51:47;5.97;;;5.15;;
9940;SDS011;5009;50.656;7.188;2023-06-01T05:54:13;6.47;;;4.47;;
9940;SDS011;5009;50.656;7.188;2023-06-01T05:56:39;6.68;;;5.03;;
9940;SDS011;5009;50.656;7.188;2023-06-01T05:59:07;5.38;;;4.88;;
9940;SDS011;5009;50.656;7.188;2023-06-01T06:01:33;6.43;;;4.85;;
9940;SDS011;5009;50.656;7.188;2023-06-01T06:03:58;9.18;;;5.97;;
9940;SDS011;5009;50.656;7.188;2023-06-01T06:06:25;10.65;;;5.72;;
9940;SDS011;5009;50.656;7.188;2023-06-01T06:08:51;7.30;;;5.85;;
9940;SDS011;5009;50.656;7.188;2023-06-01T06:11:17;8.15;;;6.22;;
9940;SDS011;5009;50.656;7.188;2023-06-01T06:13:42;12.50;;;5.78;;
9940;SDS011;5009;50.656;7.188;2023-06-01T06:16:08;7.65;;;5.68;;
9940;SDS011;5009;50.656;7.188;2023-06-01T06:18:33;7.20;;;6.00;;
9940;SDS011;5009;50.656;7.188;2023-06-01T06:21:00;8.65;;;6.55;;
9940;SDS011;5009;50.656;7.188;2023-06-01T06:23:25;7.55;;;6.35;;
9940;SDS011;5009;50.656;7.188;2023-06-01T06:25:52;7.47;;;6.22;;
9940;SDS011;5009;50.656;7.188;2023-06-01T06:28:18;7.68;;;6.30;;
9940;SDS011;5009;50.656;7.188;2023-06-01T06:30:43;6.53;;;6.00;;
9940;SDS011;5009;50.656;7.188;2023-06-01T06:33:09;8.15;;;7.05;;
9940;SDS011;5009;50.656;7.188;2023-06-01T06:35:34;7.55;;;6.80;;
9940;SDS011;5009;50.656;7.188;2023-06-01T06:38:00;7.20;;;6.50;;
9940;SDS011;5009;50.656;7.188;2023-06-01T06:40:26;7.75;;;6.65;;
9940;SDS011;5009;50.656;7.188;2023-06-01T06:42:51;8.63;;;7.82;;
9940;SDS011;5009;50.656;7.188;2023-06-01T06:45:17;7.80;;;7.10;;
9940;SDS011;5009;50.656;7.188;2023-06-01T06:47:42;7.55;;;6.85;;
9940;SDS011;5009;50.656;7.188;2023-06-01T06:50:10;8.00;;;7.18;;
9940;SDS011;5009;50.656;7.188;2023-06-01T06:52:36;8.63;;;6.57;;
9940;SDS011;5009;50.656;7.188;2023-06-01T06:55:02;11.07;;;6.95;;
9940;SDS011;5009;50.656;7.188;2023-06-01T06:57:28;8.50;;;7.55;;
9940;SDS011;5009;50.656;7.188;2023-06-01T06:59:53;8.88;;;7.28;;
9940;SDS011;5009;50.656;7.188;2023-06-01T07:02:19;8.63;;;7.75;;
9940;SDS011;5009;50.656;7.188;2023-06-01T07:04:44;9.40;;;7.45;;
9940;SDS011;5009;50.656;7.188;2023-06-01T07:07:10;9.20;;;8.23;;
9940;SDS011;5009;50.656;7.188;2023-06-01T07:09:36;9.73;;;8.50;;
9940;SDS011;5009;50.656;7.188;2023-06-01T07:12:01;9.05;;;8.15;;
9940;SDS011;5009;50.656;7.188;2023-06-01T07:14:27;9.75;;;8.65;;
9940;SDS011;5009;50.656;7.188;2023-06-01T07:16:52;9.48;;;8.57;;
9940;SDS011;5009;50.656;7.188;2023-06-01T07:19:18;9.55;;;8.65;;
9940;SDS011;5009;50.656;7.188;2023-06-01T07:21:43;9.73;;;8.82;;
9940;SDS011;5009;50.656;7.188;2023-06-01T07:24:09;10.00;;;9.07;;
9940;SDS011;5009;50.656;7.188;2023-06-01T07:26:35;9.52;;;8.68;;
9940;SDS011;5009;50.656;7.188;2023-06-01T07:29:01;10.35;;;9.45;;
9940;SDS011;5009;50.656;7.188;2023-06-01T07:31:27;9.70;;;8.68;;
9940;SDS011;5009;50.656;7.188;2023-06-01T07:33:52;10.45;;;9.45;;
9940;SDS011;5009;50.656;7.188;2023-06-01T07:36:20;9.73;;;8.73;;
9940;SDS011;5009;50.656;7.188;2023-06-01T07:38:48;10.27;;;9.38;;
9940;SDS011;5009;50.656;7.188;2023-06-01T07:41:14;10.52;;;9.40;;
9940;SDS011;5009;50.656;7.188;2023-06-01T07:43:39;12.90;;;9.43;;
9940;SDS011;5009;50.656;7.188;2023-06-01T07:46:05;11.85;;;9.48;;
9940;SDS011;5009;50.656;7.188;2023-06-01T07:48:31;10.10;;;9.15;;
9940;SDS011;5009;50.656;7.188;2023-06-01T07:51:01;10.10;;;8.80;;
9940;SDS011;5009;50.656;7.188;2023-06-01T07:53:27;11.38;;;10.27;;
9940;SDS011;5009;50.656;7.188;2023-06-01T07:55:53;11.77;;;10.63;;
9940;SDS011;5009;50.656;7.188;2023-06-01T07:58:18;11.73;;;10.57;;
9940;SDS011;5009;50.656;7.188;2023-06-01T08:00:44;12.90;;;11.60;;
9940;SDS011;5009;50.656;7.188;2023-06-01T08:03:10;12.50;;;11.07;;
9940;SDS011;5009;50.656;7.188;2023-06-01T08:05:35;12.05;;;10.82;;
9940;SDS011;5009;50.656;7.188;2023-06-01T08:08:01;13.30;;;11.60;;
9940;SDS011;5009;50.656;7.188;2023-06-01T08:10:27;13.98;;;12.27;;
9940;SDS011;5009;50.656;7.188;2023-06-01T08:12:53;13.43;;;12.02;;
9940;SDS011;5009;50.656;7.188;2023-06-01T08:15:21;15.48;;;12.02;;
9940;SDS011;5009;50.656;7.188;2023-06-01T08:17:48;13.23;;;11.85;;
9940;SDS011;5009;50.656;7.188;2023-06-01T08:20:15;15.30;;;11.00;;
9940;SDS011;5009;50.656;7.188;2023-06-01T08:22:46;14.85;;;13.35;;
9940;SDS011;5009;50.656;7.188;2023-06-01T08:25:11;14.75;;;13.00;;
9940;SDS011;5009;50.656;7.188;2023-06-01T08:27:39;16.20;;;13.73;;
9940;SDS011;5009;50.656;7.188;2023-06-01T08:30:05;17.60;;;12.85;;
9940;SDS011;5009;50.656;7.188;2023-06-01T08:32:31;14.48;;;13.07;;
9940;SDS011;5009;50.656;7.188;2023-06-01T08:34:57;16.85;;;13.13;;
9940;SDS011;5009;50.656;7.188;2023-06-01T08:37:23;17.75;;;14.55;;
9940;SDS011;5009;50.656;7.188;2023-06-01T08:39:48;16.23;;;14.65;;
9940;SDS011;5009;50.656;7.188;2023-06-01T08:42:22;17.58;;;13.70;;
9940;SDS011;5009;50.656;7.188;2023-06-01T08:44:54;14.55;;;12.93;;
9940;SDS011;5009;50.656;7.188;2023-06-01T08:47:26;16.70;;;14.23;;
9940;SDS011;5009;50.656;7.188;2023-06-01T08:49:52;17.02;;;15.35;;
9940;SDS011;5009;50.656;7.188;2023-06-01T08:52:19;18.33;;;16.20;;
9940;SDS011;5009;50.656;7.188;2023-06-01T08:54:46;20.75;;;18.58;;
9940;SDS011;5009;50.656;7.188;2023-06-01T08:57:11;17.27;;;15.50;;
9940;SDS011;5009;50.656;7.188;2023-06-01T08:59:38;19.00;;;17.02;;
9940;SDS011;5009;50.656;7.188;2023-06-01T09:02:04;21.23;;;17.67;;
9940;SDS011;5009;50.656;7.188;2023-06-01T09:04:31;18.73;;;16.40;;
9940;SDS011;5009;50.656;7.188;2023-06-01T09:06:59;19.27;;;16.75;;
9940;SDS011;5009;50.656;7.188;2023-06-01T09:09:24;18.75;;;16.95;;
9940;SDS011;5009;50.656;7.188;2023-06-01T09:14:45;21.00;;;18.73;;
9940;SDS011;5009;50.656;7.188;2023-06-01T09:17:14;18.73;;;16.90;;
9940;SDS011;5009;50.656;7.188;2023-06-01T09:19:50;19.95;;;18.05;;
9940;SDS011;5009;50.656;7.188;2023-06-01T09:22:19;20.92;;;18.70;;
9940;SDS011;5009;50.656;7.188;2023-06-01T09:24:58;21.17;;;18.83;;
9940;SDS011;5009;50.656;7.188;2023-06-01T09:27:24;21.75;;;19.63;;
9940;SDS011;5009;50.656;7.188;2023-06-01T09:29:58;27.45;;;20.02;;
9940;SDS011;5009;50.656;7.188;2023-06-01T09:32:26;20.38;;;18.42;;
9940;SDS011;5009;50.656;7.188;2023-06-01T09:34:52;19.02;;;17.27;;
9940;SDS011;5009;50.656;7.188;2023-06-01T09:37:19;22.00;;;19.92;;
9940;SDS011;5009;50.656;7.188;2023-06-01T09:39:45;21.00;;;19.08;;
9940;SDS011;5009;50.656;7.188;2023-06-01T09:42:11;20.63;;;18.55;;
9940;SDS011;5009;50.656;7.188;2023-06-01T09:44:40;22.38;;;20.15;;
9940;SDS011;5009;50.656;7.188;2023-06-01T09:47:08;24.25;;;21.88;;
9940;SDS011;5009;50.656;7.188;2023-06-01T09:54:39;23.67;;;21.20;;
9940;SDS011;5009;50.656;7.188;2023-06-01T09:57:06;20.05;;;18.10;;
9940;SDS011;5009;50.656;7.188;2023-06-01T09:59:43;20.60;;;18.63;;
9940;SDS011;5009;50.656;7.188;2023-06-01T10:02:22;23.10;;;19.15;;
9940;SDS011;5009;50.656;7.188;2023-06-01T10:04:50;18.50;;;16.70;;
9940;SDS011;5009;50.656;7.188;2023-06-01T10:07:22;20.23;;;18.13;;
9940;SDS011;5009;50.656;7.188;2023-06-01T10:09:51;21.05;;;18.98;;
9940;SDS011;5009;50.656;7.188;2023-06-01T10:12:20;22.25;;;19.85;;
9940;SDS011;5009;50.656;7.188;2023-06-01T10:14:47;20.20;;;18.10;;
9940;SDS011;5009;50.656;7.188;2023-06-01T10:17:13;18.33;;;16.73;;
9940;SDS011;5009;50.656;7.188;2023-06-01T10:19:41;21.08;;;19.13;;
9940;SDS011;5009;50.656;7.188;2023-06-01T10:22:07;21.67;;;19.50;;
9940;SDS011;5009;50.656;7.188;2023-06-01T10:24:35;21.92;;;19.73;;
9940;SDS011;5009;50.656;7.188;2023-06-01T10:29:44;19.60;;;17.75;;
9940;SDS011;5009;50.656;7.188;2023-06-01T10:40:35;19.60;;;17.67;;
9940;SDS011;5009;50.656;7.188;2023-06-01T10:43:02;18.98;;;17.08;;
9940;SDS011;5009;50.656;7.188;2023-06-01T10:45:35;18.15;;;16.27;;
9940;SDS011;5009;50.656;7.188;2023-06-01T10:48:03;17.05;;;15.35;;
9940;SDS011;5009;50.656;7.188;2023-06-01T10:50:30;15.48;;;13.80;;
9940;SDS011;5009;50.656;7.188;2023-06-01T10:52:56;14.85;;;13.35;;
9940;SDS011;5009;50.656;7.188;2023-06-01T10:55:42;15.27;;;13.77;;
9940;SDS011;5009;50.656;7.188;2023-06-01T10:58:20;19.77;;;13.73;;
9940;SDS011;5009;50.656;7.188;2023-06-01T11:00:47;14.20;;;12.85;;
9940;SDS011;5009;50.656;7.188;2023-06-01T11:03:13;14.45;;;12.98;;
9940;SDS011;5009;50.656;7.188;2023-06-01T11:13:30;13.30;;;11.93;;
9940;SDS011;5009;50.656;7.188;2023-06-01T11:18:52;12.07;;;10.88;;
9940;SDS011;5009;50.656;7.188;2023-06-01T11:21:25;15.70;;;12.32;;
9940;SDS011;5009;50.656;7.188;2023-06-01T11:23:51;16.90;;;13.18;;
9940;SDS011;5009;50.656;7.188;2023-06-01T11:26:22;14.10;;;10.77;;
9940;SDS011;5009;50.656;7.188;2023-06-01T11:29:08;10.40;;;8.93;;
9940;SDS011;5009;50.656;7.188;2023-06-01T11:34:05;14.98;;;12.50;;
9940;SDS011;5009;50.656;7.188;2023-06-01T11:36:39;12.02;;;10.95;;
9940;SDS011;5009;50.656;7.188;2023-06-01T11:39:15;12.20;;;10.88;;
9940;SDS011;5009;50.656;7.188;2023-06-01T11:41:42;13.02;;;11.63;;
9940;SDS011;5009;50.656;7.188;2023-06-01T11:44:09;16.00;;;11.40;;
9940;SDS011;5009;50.656;7.188;2023-06-01T11:46:35;13.85;;;12.45;;
9940;SDS011;5009;50.656;7.188;2023-06-01T11:49:02;15.43;;;11.90;;
9940;SDS011;5009;50.656;7.188;2023-06-01T11:51:36;14.35;;;12.88;;
9940;SDS011;5009;50.656;7.188;2023-06-01T11:54:04;15.48;;;12.52;;
9940;SDS011;5009;50.656;7.188;2023-06-01T11:56:31;14.65;;;11.85;;
9940;SDS011;5009;50.656;7.188;2023-06-01T11:58:59;12.88;;;11.57;;
9940;SDS011;5009;50.656;7.188;2023-06-01T12:01:25;11.80;;;10.60;;
9940;SDS011;5009;50.656;7.188;2023-06-01T12:03:52;13.30;;;11.93;;
9940;SDS011;5009;50.656;7.188;2023-06-01T12:06:21;16.25;;;12.68;;
9940;SDS011;5009;50.656;7.188;2023-06-01T12:08:48;15.32;;;12.77;;
9940;SDS011;5009;50.656;7.188;2023-06-01T12:11:19;13.80;;;12.05;;
9940;SDS011;5009;50.656;7.188;2023-06-01T12:13:48;18.63;;;12.90;;
9940;SDS011;5009;50.656;7.188;2023-06-01T12:16:14;13.10;;;10.80;;
9940;SDS011;5009;50.656;7.188;2023-06-01T12:18:41;11.80;;;10.60;;
9940;SDS011;5009;50.656;7.188;2023-06-01T12:21:10;13.98;;;10.70;;
9940;SDS011;5009;50.656;7.188;2023-06-01T12:23:37;13.98;;;11.18;;
9940;SDS011;5009;50.656;7.188;2023-06-01T12:26:03;12.38;;;10.65;;
9940;SDS011;5009;50.656;7.188;2023-06-01T12:28:29;12.27;;;9.88;;
9940;SDS011;5009;50.656;7.188;2023-06-01T12:31:17;11.80;;;10.60;;
9940;SDS011;5009;50.656;7.188;2023-06-01T12:33:43;11.50;;;10.30;;
9940;SDS011;5009;50.656;7.188;2023-06-01T12:36:10;12.05;;;9.45;;
9940;SDS011;5009;50.656;7.188;2023-06-01T12:38:52;11.60;;;10.40;;
9940;SDS011;5009;50.656;7.188;2023-06-01T12:41:18;13.55;;;10.95;;
9940;SDS011;5009;50.656;7.188;2023-06-01T12:43:44;12.50;;;10.02;;
9940;SDS011;5009;50.656;7.188;2023-06-01T12:46:20;12.98;;;10.35;;
9940;SDS011;5009;50.656;7.188;2023-06-01T12:48:46;12.75;;;11.45;;
9940;SDS011;5009;50.656;7.188;2023-06-01T12:51:13;14.00;;;10.95;;
9940;SDS011;5009;50.656;7.188;2023-06-01T12:53:40;18.17;;;11.85;;
9940;SDS011;5009;50.656;7.188;2023-06-01T12:56:10;15.45;;;11.73;;
9940;SDS011;5009;50.656;7.188;2023-06-01T12:58:36;15.30;;;11.73;;
9940;SDS011;5009;50.656;7.188;2023-06-01T13:01:02;17.13;;;13.27;;
9940;SDS011;5009;50.656;7.188;2023-06-01T13:03:28;16.58;;;13.25;;
9940;SDS011;5009;50.656;7.188;2023-06-01T13:05:54;13.75;;;12.30;;
9940;SDS011;5009;50.656;7.188;2023-06-01T13:08:20;15.77;;;11.65;;
9940;SDS011;5009;50.656;7.188;2023-06-01T13:10:47;16.70;;;11.57;;
9940;SDS011;5009;50.656;7.188;2023-06-01T13:13:13;12.80;;;11.60;;
9940;SDS011;5009;50.656;7.188;2023-06-01T13:15:39;16.13;;;13.88;;
9940;SDS011;5009;50.656;7.188;2023-06-01T13:18:05;18.20;;;12.60;;
9940;SDS011;5009;50.656;7.188;2023-06-01T13:20:31;17.73;;;13.73;;
9940;SDS011;5009;50.656;7.188;2023-06-01T13:22:57;16.13;;;13.80;;
9940;SDS011;5009;50.656;7.188;2023-06-01T13:25:22;14.73;;;13.15;;
9940;SDS011;5009;50.656;7.188;2023-06-01T13:27:48;13.95;;;12.43;;
9940;SDS011;5009;50.656;7.188;2023-06-01T13:30:14;13.98;;;11.85;;
9940;SDS011;5009;50.656;7.188;2023-06-01T13:32:39;18.52;;;11.93;;
9940;SDS011;5009;50.656;7.188;2023-06-01T13:35:05;12.27;;;10.68;;
9940;SDS011;5009;50.656;7.188;2023-06-01T13:37:31;11.43;;;9.60;;
9940;SDS011;5009;50.656;7.188;2023-06-01T13:39:57;11.40;;;10.00;;
9940;SDS011;5009;50.656;7.188;2023-06-01T13:42:22;13.02;;;11.00;;
9940;SDS011;5009;50.656;7.188;2023-06-01T13:44:48;13.32;;;10.68;;
9940;SDS011;5009;50.656;7.188;2023-06-01T13:47:14;10.95;;;9.88;;
9940;SDS011;5009;50.656;7.188;2023-06-01T13:49:40;17.13;;;9.70;;
9940;SDS011;5009;50.656;7.188;2023-06-01T13:52:09;10.27;;;9.18;;
9940;SDS011;5009;50.656;7.188;2023-06-01T13:54:35;10.80;;;9.70;;
9940;SDS011;5009;50.656;7.188;2023-06-01T13:57:02;15.10;;;10.48;;
9940;SDS011;5009;50.656;7.188;2023-06-01T13:59:30;11.35;;;9.65;;
9940;SDS011;5009;50.656;7.188;2023-06-01T14:01:58;13.65;;;10.82;;
9940;SDS011;5009;50.656;7.188;2023-06-01T14:04:24;14.32;;;11.05;;
9940;SDS011;5009;50.656;7.188;2023-06-01T14:06:50;14.55;;;11.02;;
9940;SDS011;5009;50.656;7.188;2023-06-01T14:09:16;11.73;;;10.57;;
9940;SDS011;5009;50.656;7.188;2023-06-01T14:11:42;15.30;;;11.82;;
9940;SDS011;5009;50.656;7.188;2023-06-01T14:14:07;13.13;;;10.73;;
9940;SDS011;5009;50.656;7.188;2023-06-01T14:16:33;10.73;;;9.68;;
9940;SDS011;5009;50.656;7.188;2023-06-01T14:18:59;11.73;;;10.63;;
9940;SDS011;5009;50.656;7.188;2023-06-01T14:21:24;15.60;;;11.23;;
9940;SDS011;5009;50.656;7.188;2023-06-01T14:23:50;17.67;;;12.05;;
9940;SDS011;5009;50.656;7.188;2023-06-01T14:26:16;13.98;;;11.65;;
9940;SDS011;5009;50.656;7.188;2023-06-01T14:28:41;15.38;;;12.13;;
9940;SDS011;5009;50.656;7.188;2023-06-01T14:31:07;13.45;;;12.13;;
9940;SDS011;5009;50.656;7.188;2023-06-01T14:33:33;13.45;;;11.20;;
9940;SDS011;5009;50.656;7.188;2023-06-01T14:35:58;17.90;;;11.32;;
9940;SDS011;5009;50.656;7.188;2023-06-01T14:38:24;12.63;;;11.38;;
9940;SDS011;5009;50.656;7.188;2023-06-01T14:40:50;13.55;;;12.23;;
9940;SDS011;5009;50.656;7.188;2023-06-01T14:43:15;17.42;;;11.52;;
9940;SDS011;5009;50.656;7.188;2023-06-01T14:45:41;13.45;;;12.07;;
9940;SDS011;5009;50.656;7.188;2023-06-01T14:48:06;16.83;;;11.85;;
9940;SDS011;5009;50.656;7.188;2023-06-01T14:50:32;13.35;;;11.95;;
9940;SDS011;5009;50.656;7.188;2023-06-01T14:52:57;17.85;;;12.13;;
9940;SDS011;5009;50.656;7.188;2023-06-01T14:55:27;14.25;;;11.98;;
9940;SDS011;5009;50.656;7.188;2023-06-01T14:57:53;13.50;;;11.98;;
9940;SDS011;5009;50.656;7.188;2023-06-01T15:00:19;14.10;;;11.73;;
9940;SDS011;5009;50.656;7.188;2023-06-01T15:02:45;16.55;;;11.13;;
9940;SDS011;5009;50.656;7.188;2023-06-01T15:05:11;15.00;;;11.05;;
9940;SDS011;5009;50.656;7.188;2023-06-01T15:07:37;17.63;;;10.45;;
9940;SDS011;5009;50.656;7.188;2023-06-01T15:10:03;11.10;;;8.70;;
9940;SDS011;5009;50.656;7.188;2023-06-01T15:12:29;11.02;;;9.30;;
9940;SDS011;5009;50.656;7.188;2023-06-01T15:14:54;15.50;;;10.93;;
9940;SDS011;5009;50.656;7.188;2023-06-01T15:17:20;12.25;;;10.38;;
9940;SDS011;5009;50.656;7.188;2023-06-01T15:19:46;14.88;;;9.88;;
9940;SDS011;5009;50.656;7.188;2023-06-01T15:22:12;12.82;;;9.43;;
9940;SDS011;5009;50.656;7.188;2023-06-01T15:24:37;12.13;;;8.70;;
9940;SDS011;5009;50.656;7.188;2023-06-01T15:27:04;11.52;;;8.23;;
9940;SDS011;5009;50.656;7.188;2023-06-01T15:29:31;13.55;;;8.75;;
9940;SDS011;5009;50.656;7.188;2023-06-01T15:31:56;10.30;;;8.05;;
9940;SDS011;5009;50.656;7.188;2023-06-01T15:34:22;13.10;;;7.35;;
9940;SDS011;5009;50.656;7.188;2023-06-01T15:36:48;10.05;;;7.20;;
9940;SDS011;5009;50.656;7.188;2023-06-01T15:39:13;13.05;;;7.25;;
9940;SDS011;5009;50.656;7.188;2023-06-01T15:41:40;13.30;;;8.10;;